sensor_id;sensor_type;location;lat;lon;timestamp;pressure;altitude;pressure_sealevel;temperature;humidity
51781;BME280;37844;57.126;24.288;2023-10-13T00:00:44;100561.59;;;11.36;100.00
51781;BME280;37844;57.126;24.288;2023-10-13T00:03:28;100565.88;;;11.30;100.00
51781;BME280;37844;57.126;24.288;2023-10-13T00:06:15;100561.56;;;11.29;100.00
51781;BME280;37844;57.126;24.288;2023-10-13T00:08:59;100573.53;;;11.22;100.00
51781;BME280;37844;57.126;24.288;2023-10-13T00:11:43;100575.31;;;11.29;100.00
51781;BME280;37844;57.126;24.288;2023-10-13T00:14:31;100580.47;;;11.26;100.00
51781;BME280;37844;57.126;24.288;2023-10-13T00:17:18;100587.38;;;11.32;100.00
51781;BME280;37844;57.126;24.288;2023-10-13T00:20:09;100584.00;;;11.37;100.00
51781;BME280;37844;57.126;24.288;2023-10-13T00:23:00;100589.13;;;11.33;100.00
51781;BME280;37844;57.126;24.288;2023-10-13T00:25:50;100587.38;;;11.27;100.00
51781;BME280;37844;57.126;24.288;2023-10-13T00:28:40;100587.38;;;11.32;100.00
51781;BME280;37844;57.126;24.288;2023-10-13T00:31:30;100591.66;;;11.25;100.00
51781;BME280;37844;57.126;24.288;2023-10-13T00:34:17;100601.84;;;11.11;100.00
51781;BME280;37844;57.126;24.288;2023-10-13T00:37:12;100603.59;;;11.17;100.00
51781;BME280;37844;57.126;24.288;2023-10-13T00:40:03;100600.22;;;11.22;100.00
51781;BME280;37844;57.126;24.288;2023-10-13T00:42:53;100604.53;;;11.25;100.00
51781;BME280;37844;57.126;24.288;2023-10-13T00:45:38;100615.75;;;11.29;100.00
51781;BME280;37844;57.126;24.288;2023-10-13T00:48:27;100620.06;;;11.31;100.00
51781;BME280;37844;57.126;24.288;2023-10-13T00:51:18;100624.31;;;11.23;100.00
51781;BME280;37844;57.126;24.288;2023-10-13T00:54:17;100632.91;;;11.27;100.00
51781;BME280;37844;57.126;24.288;2023-10-13T00:57:02;100637.16;;;11.20;100.00
51781;BME280;37844;57.126;24.288;2023-10-13T00:59:56;100638.03;;;11.19;100.00
51781;BME280;37844;57.126;24.288;2023-10-13T01:02:56;100636.31;;;11.21;100.00
51781;BME280;37844;57.126;24.288;2023-10-13T01:05:41;100646.59;;;11.16;100.00
51781;BME280;37844;57.126;24.288;2023-10-13T01:08:33;100646.59;;;11.13;100.00
51781;BME280;37844;57.126;24.288;2023-10-13T01:11:21;100650.84;;;11.11;100.00
51781;BME280;37844;57.126;24.288;2023-10-13T01:14:07;100660.31;;;11.12;100.00
51781;BME280;37844;57.126;24.288;2023-10-13T01:16:51;100658.56;;;11.07;100.00
51781;BME280;37844;57.126;24.288;2023-10-13T01:19:39;100668.84;;;11.05;100.00
51781;BME280;37844;57.126;24.288;2023-10-13T01:22:26;100669.69;;;11.02;100.00
51781;BME280;37844;57.126;24.288;2023-10-13T01:25:12;100670.53;;;11.00;100.00
51781;BME280;37844;57.126;24.288;2023-10-13T01:28:03;100680.84;;;11.03;100.00
51781;BME280;37844;57.126;24.288;2023-10-13T01:30:47;100675.59;;;10.89;100.00
51781;BME280;37844;57.126;24.288;2023-10-13T01:33:34;100681.59;;;10.91;100.00
51781;BME280;37844;57.126;24.288;2023-10-13T01:36:19;100690.22;;;10.92;100.00
51781;BME280;37844;57.126;24.288;2023-10-13T01:39:03;100697.09;;;10.93;100.00
51781;BME280;37844;57.126;24.288;2023-10-13T01:41:47;100685.91;;;10.89;100.00
51781;BME280;37844;57.126;24.288;2023-10-13T01:44:38;100693.59;;;10.88;100.00
51781;BME280;37844;57.126;24.288;2023-10-13T01:47:22;100698.75;;;10.85;100.00
51781;BME280;37844;57.126;24.288;2023-10-13T01:50:07;100694.41;;;10.83;100.00
51781;BME280;37844;57.126;24.288;2023-10-13T01:53:03;100705.56;;;10.81;100.00
51781;BME280;37844;57.126;24.288;2023-10-13T01:56:06;100710.75;;;10.84;100.00
51781;BME280;37844;57.126;24.288;2023-10-13T01:58:57;100709.06;;;10.86;100.00
51781;BME280;37844;57.126;24.288;2023-10-13T02:01:42;100717.72;;;10.90;100.00
51781;BME280;37844;57.126;24.288;2023-10-13T02:04:27;100716.84;;;10.89;100.00
51781;BME280;37844;57.126;24.288;2023-10-13T02:07:12;100729.72;;;10.88;100.00
51781;BME280;37844;57.126;24.288;2023-10-13T02:09:59;100734.78;;;10.80;100.00
51781;BME280;37844;57.126;24.288;2023-10-13T02:12:43;100741.59;;;10.76;100.00
51781;BME280;37844;57.126;24.288;2023-10-13T02:15:27;100742.41;;;10.72;100.00
51781;BME280;37844;57.126;24.288;2023-10-13T02:18:20;100746.50;;;10.55;100.00
51781;BME280;37844;57.126;24.288;2023-10-13T02:21:10;100750.81;;;10.56;100.00
51781;BME280;37844;57.126;24.288;2023-10-13T02:23:58;100760.22;;;10.52;100.00
51781;BME280;37844;57.126;24.288;2023-10-13T02:26:47;100761.84;;;10.46;100.00
51781;BME280;37844;57.126;24.288;2023-10-13T02:29:31;100761.03;;;10.50;100.00
51781;BME280;37844;57.126;24.288;2023-10-13T02:32:23;100761.91;;;10.49;100.00
51781;BME280;37844;57.126;24.288;2023-10-13T02:35:07;100756.47;;;10.32;100.00
51781;BME280;37844;57.126;24.288;2023-10-13T02:37:59;100754.91;;;10.40;100.00
51781;BME280;37844;57.126;24.288;2023-10-13T02:40:54;100762.66;;;10.43;100.00
51781;BME280;37844;57.126;24.288;2023-10-13T02:43:38;100766.84;;;10.35;100.00
51781;BME280;37844;57.126;24.288;2023-10-13T02:46:23;100766.69;;;10.27;100.00
51781;BME280;37844;57.126;24.288;2023-10-13T02:49:12;100772.41;;;10.08;100.00
51781;BME280;37844;57.126;24.288;2023-10-13T02:51:57;100774.84;;;9.97;100.00
51781;BME280;37844;57.126;24.288;2023-10-13T02:54:43;100783.97;;;9.80;100.00
51781;BME280;37844;57.126;24.288;2023-10-13T02:57:30;100781.19;;;9.66;100.00
51781;BME280;37844;57.126;24.288;2023-10-13T03:00:18;100793.00;;;9.56;100.00
51781;BME280;37844;57.126;24.288;2023-10-13T03:03:07;100780.91;;;9.50;100.00
51781;BME280;37844;57.126;24.288;2023-10-13T03:05:51;100785.75;;;9.33;100.00
51781;BME280;37844;57.126;24.288;2023-10-13T03:08:35;100788.00;;;9.17;100.00
51781;BME280;37844;57.126;24.288;2023-10-13T03:11:21;100798.06;;;9.06;100.00
51781;BME280;37844;57.126;24.288;2023-10-13T03:14:05;100803.94;;;8.99;100.00
51781;BME280;37844;57.126;24.288;2023-10-13T03:16:55;100805.34;;;8.84;100.00
51781;BME280;37844;57.126;24.288;2023-10-13T03:19:42;100809.47;;;8.76;100.00
51781;BME280;37844;57.126;24.288;2023-10-13T03:22:30;100815.88;;;8.56;100.00
51781;BME280;37844;57.126;24.288;2023-10-13T03:25:15;100817.50;;;8.52;100.00
51781;BME280;37844;57.126;24.288;2023-10-13T03:28:08;100824.41;;;8.55;100.00
51781;BME280;37844;57.126;24.288;2023-10-13T03:30:57;100822.25;;;8.35;100.00
51781;BME280;37844;57.126;24.288;2023-10-13T03:33:45;100816.03;;;8.27;100.00
51781;BME280;37844;57.126;24.288;2023-10-13T03:36:30;100822.88;;;8.26;100.00
51781;BME280;37844;57.126;24.288;2023-10-13T03:39:33;100829.72;;;8.26;100.00
51781;BME280;37844;57.126;24.288;2023-10-13T03:42:17;100829.72;;;8.26;100.00
51781;BME280;37844;57.126;24.288;2023-10-13T03:45:06;100825.06;;;8.10;100.00
51781;BME280;37844;57.126;24.288;2023-10-13T03:47:54;100827.38;;;8.00;100.00
51781;BME280;37844;57.126;24.288;2023-10-13T03:50:39;100834.19;;;7.98;100.00
51781;BME280;37844;57.126;24.288;2023-10-13T03:53:45;100834.19;;;7.98;100.00
51781;BME280;37844;57.126;24.288;2023-10-13T03:56:38;100848.53;;;7.90;100.00
51781;BME280;37844;57.126;24.288;2023-10-13T03:59:22;100846.72;;;7.88;100.00
51781;BME280;37844;57.126;24.288;2023-10-13T04:02:06;100854.97;;;7.76;100.00
51781;BME280;37844;57.126;24.288;2023-10-13T04:05:01;100860.28;;;7.82;100.00
51781;BME280;37844;57.126;24.288;2023-10-13T04:07:51;100862.53;;;7.70;100.00
51781;BME280;37844;57.126;24.288;2023-10-13T04:10:56;100864.06;;;7.63;100.00
51781;BME280;37844;57.126;24.288;2023-10-13T04:13:40;100866.75;;;7.68;100.00
51781;BME280;37844;57.126;24.288;2023-10-13T04:16:53;100867.50;;;7.63;100.00
51781;BME280;37844;57.126;24.288;2023-10-13T04:19:38;100871.88;;;7.68;100.00
51781;BME280;37844;57.126;24.288;2023-10-13T04:22:43;100865.72;;;7.61;100.00
51781;BME280;37844;57.126;24.288;2023-10-13T04:25:30;100864.78;;;7.59;100.00
51781;BME280;37844;57.126;24.288;2023-10-13T04:28:26;100886.94;;;7.55;100.00
51781;BME280;37844;57.126;24.288;2023-10-13T04:31:21;100895.56;;;7.57;100.00
51781;BME280;37844;57.126;24.288;2023-10-13T04:34:23;100894.56;;;7.52;100.00
51781;BME280;37844;57.126;24.288;2023-10-13T04:37:12;100903.41;;;7.63;100.00
51781;BME280;37844;57.126;24.288;2023-10-13T04:40:32;100908.47;;;7.60;100.00
51781;BME280;37844;57.126;24.288;2023-10-13T04:43:18;100914.63;;;7.67;100.00
51781;BME280;37844;57.126;24.288;2023-10-13T04:46:25;100912.03;;;7.65;100.00
51781;BME280;37844;57.126;24.288;2023-10-13T04:49:22;100916.09;;;7.59;100.00
51781;BME280;37844;57.126;24.288;2023-10-13T04:52:13;100923.78;;;7.57;100.00
51781;BME280;37844;57.126;24.288;2023-10-13T04:55:17;100930.38;;;7.49;100.00
51781;BME280;37844;57.126;24.288;2023-10-13T04:58:21;100932.84;;;7.46;100.00
51781;BME280;37844;57.126;24.288;2023-10-13T05:01:17;100936.34;;;7.48;100.00
51781;BME280;37844;57.126;24.288;2023-10-13T05:04:21;100936.50;;;7.54;100.00
51781;BME280;37844;57.126;24.288;2023-10-13T05:07:14;100935.81;;;7.60;100.00
51781;BME280;37844;57.126;24.288;2023-10-13T05:10:17;100936.09;;;7.71;100.00
51781;BME280;37844;57.126;24.288;2023-10-13T05:13:21;100942.28;;;7.77;100.00
51781;BME280;37844;57.126;24.288;2023-10-13T05:16:24;100944.22;;;7.86;100.00
51781;BME280;37844;57.126;24.288;2023-10-13T05:19:27;100943.75;;;8.01;100.00
51781;BME280;37844;57.126;24.288;2023-10-13T05:22:30;100945.66;;;8.08;100.00
51781;BME280;37844;57.126;24.288;2023-10-13T05:25:37;100938.09;;;8.13;100.00
51781;BME280;37844;57.126;24.288;2023-10-13T05:28:40;100941.09;;;8.29;100.00
51781;BME280;37844;57.126;24.288;2023-10-13T05:31:43;100940.59;;;8.43;100.00
51781;BME280;37844;57.126;24.288;2023-10-13T05:34:45;100950.16;;;8.48;100.00
51781;BME280;37844;57.126;24.288;2023-10-13T05:37:48;100956.25;;;8.54;100.00
51781;BME280;37844;57.126;24.288;2023-10-13T05:44:00;100965.22;;;8.69;100.00
51781;BME280;37844;57.126;24.288;2023-10-13T05:47:04;100964.38;;;8.69;100.00
51781;BME280;37844;57.126;24.288;2023-10-13T05:50:07;100960.09;;;8.69;100.00
51781;BME280;37844;57.126;24.288;2023-10-13T05:53:13;100971.28;;;8.73;100.00
51781;BME280;37844;57.126;24.288;2023-10-13T05:56:00;100976.34;;;8.68;100.00
51781;BME280;37844;57.126;24.288;2023-10-13T05:59:03;100988.13;;;8.97;100.00
51781;BME280;37844;57.126;24.288;2023-10-13T06:02:06;100997.84;;;9.08;100.00
51781;BME280;37844;57.126;24.288;2023-10-13T06:05:10;100997.44;;;9.28;100.00
51781;BME280;37844;57.126;24.288;2023-10-13T06:08:13;100993.47;;;9.42;100.00
51781;BME280;37844;57.126;24.288;2023-10-13T06:11:16;101002.53;;;9.66;100.00
51781;BME280;37844;57.126;24.288;2023-10-13T06:14:19;101014.81;;;9.79;100.00
51781;BME280;37844;57.126;24.288;2023-10-13T06:17:23;101021.16;;;9.95;100.00
51781;BME280;37844;57.126;24.288;2023-10-13T06:20:26;101016.22;;;10.07;100.00
51781;BME280;37844;57.126;24.288;2023-10-13T06:23:29;101016.97;;;10.46;100.00
51781;BME280;37844;57.126;24.288;2023-10-13T06:26:31;101020.34;;;10.93;100.00
51781;BME280;37844;57.126;24.288;2023-10-13T06:29:34;101023.81;;;11.55;100.00
51781;BME280;37844;57.126;24.288;2023-10-13T06:32:22;101028.53;;;11.85;100.00
51781;BME280;37844;57.126;24.288;2023-10-13T06:35:12;101024.91;;;12.44;100.00
51781;BME280;37844;57.126;24.288;2023-10-13T06:38:02;101028.69;;;12.83;100.00
51781;BME280;37844;57.126;24.288;2023-10-13T06:40:47;101035.19;;;13.42;100.00
51781;BME280;37844;57.126;24.288;2023-10-13T06:43:37;101040.56;;;13.88;100.00
51781;BME280;37844;57.126;24.288;2023-10-13T06:46:25;101047.66;;;14.38;100.00
51781;BME280;37844;57.126;24.288;2023-10-13T06:49:11;101045.13;;;15.29;100.00
51781;BME280;37844;57.126;24.288;2023-10-13T06:51:57;101053.69;;;15.72;100.00
51781;BME280;37844;57.126;24.288;2023-10-13T06:54:44;101057.94;;;15.98;100.00
51781;BME280;37844;57.126;24.288;2023-10-13T06:57:28;101058.03;;;15.73;100.00
51781;BME280;37844;57.126;24.288;2023-10-13T07:00:18;101065.03;;;15.20;100.00
51781;BME280;37844;57.126;24.288;2023-10-13T07:03:17;101065.81;;;15.75;100.00
51781;BME280;37844;57.126;24.288;2023-10-13T07:06:05;101064.66;;;16.40;97.28
51781;BME280;37844;57.126;24.288;2023-10-13T07:08:54;101061.53;;;17.96;91.87
51781;BME280;37844;57.126;24.288;2023-10-13T07:11:40;101059.53;;;18.77;85.27
51781;BME280;37844;57.126;24.288;2023-10-13T07:14:27;101050.34;;;19.09;80.60
51781;BME280;37844;57.126;24.288;2023-10-13T07:17:11;101061.91;;;18.94;78.28
51781;BME280;37844;57.126;24.288;2023-10-13T07:19:55;101055.78;;;18.39;77.83
51781;BME280;37844;57.126;24.288;2023-10-13T07:22:55;101048.94;;;18.88;76.71
51781;BME280;37844;57.126;24.288;2023-10-13T07:26:01;101051.97;;;19.14;73.97
51781;BME280;37844;57.126;24.288;2023-10-13T07:28:48;101056.38;;;20.43;72.38
51781;BME280;37844;57.126;24.288;2023-10-13T07:31:35;101045.56;;;20.94;68.37
51781;BME280;37844;57.126;24.288;2023-10-13T07:34:21;101042.59;;;20.36;67.92
51781;BME280;37844;57.126;24.288;2023-10-13T07:37:09;101040.47;;;19.71;67.61
51781;BME280;37844;57.126;24.288;2023-10-13T07:39:58;101045.63;;;20.55;67.80
51781;BME280;37844;57.126;24.288;2023-10-13T07:42:42;101044.03;;;20.09;65.84
51781;BME280;37844;57.126;24.288;2023-10-13T07:45:27;101047.69;;;19.57;66.19
51781;BME280;37844;57.126;24.288;2023-10-13T07:48:20;101049.66;;;19.45;67.60
51781;BME280;37844;57.126;24.288;2023-10-13T07:51:08;101049.66;;;19.45;67.44
51781;BME280;37844;57.126;24.288;2023-10-13T07:53:55;101052.81;;;20.06;67.68
51781;BME280;37844;57.126;24.288;2023-10-13T07:56:40;101051.09;;;20.46;66.96
51781;BME280;37844;57.126;24.288;2023-10-13T07:59:24;101056.81;;;20.24;65.76
51781;BME280;37844;57.126;24.288;2023-10-13T08:02:08;101061.22;;;19.80;66.03
51781;BME280;37844;57.126;24.288;2023-10-13T08:05:17;101074.75;;;20.01;67.09
51781;BME280;37844;57.126;24.288;2023-10-13T08:08:34;101079.50;;;19.82;66.28
51781;BME280;37844;57.126;24.288;2023-10-13T08:11:24;101083.75;;;18.88;67.20
51781;BME280;37844;57.126;24.288;2023-10-13T08:14:09;101090.09;;;18.08;69.61
51781;BME280;37844;57.126;24.288;2023-10-13T08:17:01;101101.72;;;17.76;72.80
51781;BME280;37844;57.126;24.288;2023-10-13T08:19:46;101078.34;;;17.69;73.60
51781;BME280;37844;57.126;24.288;2023-10-13T08:22:30;101077.22;;;17.93;74.77
51781;BME280;37844;57.126;24.288;2023-10-13T08:25:21;101080.75;;;17.92;74.51
51781;BME280;37844;57.126;24.288;2023-10-13T08:28:34;101079.44;;;18.25;75.33
51781;BME280;37844;57.126;24.288;2023-10-13T08:31:28;101071.84;;;18.08;74.05
51781;BME280;37844;57.126;24.288;2023-10-13T08:34:13;101073.13;;;18.40;73.98
51781;BME280;37844;57.126;24.288;2023-10-13T08:37:00;101070.16;;;18.64;73.00
51781;BME280;37844;57.126;24.288;2023-10-13T08:39:59;101084.09;;;18.65;72.94
51781;BME280;37844;57.126;24.288;2023-10-13T08:42:46;101076.50;;;18.48;71.79
51781;BME280;37844;57.126;24.288;2023-10-13T08:45:36;101078.03;;;17.99;73.18
51781;BME280;37844;57.126;24.288;2023-10-13T08:48:29;101083.03;;;18.16;77.23
51781;BME280;37844;57.126;24.288;2023-10-13T08:51:15;101071.84;;;18.67;74.34
51781;BME280;37844;57.126;24.288;2023-10-13T08:54:16;101071.25;;;18.50;71.06
51781;BME280;37844;57.126;24.288;2023-10-13T08:57:25;101068.22;;;18.80;70.43
51781;BME280;37844;57.126;24.288;2023-10-13T09:00:32;101066.63;;;18.69;72.46
51781;BME280;37844;57.126;24.288;2023-10-13T09:03:36;101071.56;;;18.89;71.26
51781;BME280;37844;57.126;24.288;2023-10-13T09:06:23;101074.34;;;18.78;70.94
51781;BME280;37844;57.126;24.288;2023-10-13T09:09:09;101081.25;;;18.82;71.33
51781;BME280;37844;57.126;24.288;2023-10-13T09:12:15;101079.00;;;19.12;69.78
51781;BME280;37844;57.126;24.288;2023-10-13T09:15:10;101088.28;;;18.77;69.18
51781;BME280;37844;57.126;24.288;2023-10-13T09:17:57;101097.53;;;18.37;71.52
51781;BME280;37844;57.126;24.288;2023-10-13T09:21:00;101079.75;;;18.65;68.86
51781;BME280;37844;57.126;24.288;2023-10-13T09:24:11;101084.25;;;18.56;69.66
51781;BME280;37844;57.126;24.288;2023-10-13T09:27:05;101082.28;;;18.07;68.74
51781;BME280;37844;57.126;24.288;2023-10-13T09:29:59;101085.69;;;18.13;69.25
51781;BME280;37844;57.126;24.288;2023-10-13T09:33:00;101089.81;;;17.51;69.60
51781;BME280;37844;57.126;24.288;2023-10-13T09:35:45;101098.84;;;17.14;70.40
51781;BME280;37844;57.126;24.288;2023-10-13T09:38:34;101104.25;;;16.94;72.20
51781;BME280;37844;57.126;24.288;2023-10-13T09:41:20;101113.06;;;16.69;70.97
51781;BME280;37844;57.126;24.288;2023-10-13T09:44:10;101101.84;;;16.58;72.78
51781;BME280;37844;57.126;24.288;2023-10-13T09:46:57;101105.47;;;16.30;73.50
51781;BME280;37844;57.126;24.288;2023-10-13T09:49:48;101110.69;;;16.23;74.65
51781;BME280;37844;57.126;24.288;2023-10-13T09:52:33;101113.47;;;15.75;76.75
51781;BME280;37844;57.126;24.288;2023-10-13T09:55:27;101115.19;;;15.65;80.54
51781;BME280;37844;57.126;24.288;2023-10-13T09:58:14;101118.69;;;15.61;81.91
51781;BME280;37844;57.126;24.288;2023-10-13T10:01:14;101122.13;;;15.79;82.94
51781;BME280;37844;57.126;24.288;2023-10-13T10:04:13;101117.78;;;15.81;81.95
51781;BME280;37844;57.126;24.288;2023-10-13T10:07:00;101119.50;;;15.69;82.18
51781;BME280;37844;57.126;24.288;2023-10-13T10:09:55;101114.31;;;15.65;81.53
51781;BME280;37844;57.126;24.288;2023-10-13T10:12:54;101111.75;;;15.42;84.45
51781;BME280;37844;57.126;24.288;2023-10-13T10:15:44;101107.44;;;15.41;86.55
51781;BME280;37844;57.126;24.288;2023-10-13T10:18:29;101111.78;;;15.39;85.28
51781;BME280;37844;57.126;24.288;2023-10-13T10:21:14;101116.09;;;15.40;84.62
51781;BME280;37844;57.126;24.288;2023-10-13T10:23:59;101111.78;;;15.34;84.18
51781;BME280;37844;57.126;24.288;2023-10-13T10:26:53;101104.00;;;15.22;85.26
51781;BME280;37844;57.126;24.288;2023-10-13T10:29:37;101111.78;;;15.25;87.54
51781;BME280;37844;57.126;24.288;2023-10-13T10:32:21;101103.13;;;15.17;88.84
51781;BME280;37844;57.126;24.288;2023-10-13T10:35:06;101097.06;;;15.02;85.16
51781;BME280;37844;57.126;24.288;2023-10-13T10:38:13;101097.03;;;14.72;86.11
51781;BME280;37844;57.126;24.288;2023-10-13T10:41:12;101099.66;;;14.92;86.23
51781;BME280;37844;57.126;24.288;2023-10-13T10:43:57;101091.00;;;14.94;87.41
51781;BME280;37844;57.126;24.288;2023-10-13T10:46:46;101090.16;;;15.04;87.83
51781;BME280;37844;57.126;24.288;2023-10-13T10:49:40;101096.19;;;14.83;88.63
51781;BME280;37844;57.126;24.288;2023-10-13T10:52:27;101095.31;;;14.92;90.09
51781;BME280;37844;57.126;24.288;2023-10-13T10:55:11;101094.44;;;14.79;91.17
51781;BME280;37844;57.126;24.288;2023-10-13T10:58:01;101091.00;;;14.71;93.02
51781;BME280;37844;57.126;24.288;2023-10-13T11:00:45;101092.72;;;14.74;94.32
51781;BME280;37844;57.126;24.288;2023-10-13T11:03:34;101097.91;;;14.65;95.29
51781;BME280;37844;57.126;24.288;2023-10-13T11:06:21;101094.44;;;14.75;96.88
51781;BME280;37844;57.126;24.288;2023-10-13T11:09:08;101079.75;;;14.80;97.56
51781;BME280;37844;57.126;24.288;2023-10-13T11:12:14;101091.00;;;14.96;95.72
51781;BME280;37844;57.126;24.288;2023-10-13T11:15:08;101084.94;;;14.78;91.43
51781;BME280;37844;57.126;24.288;2023-10-13T11:18:06;101084.06;;;14.82;91.29
51781;BME280;37844;57.126;24.288;2023-10-13T11:20:57;101083.22;;;15.08;89.18
51781;BME280;37844;57.126;24.288;2023-10-13T11:23:42;101078.03;;;15.26;83.50
51781;BME280;37844;57.126;24.288;2023-10-13T11:26:34;101087.53;;;15.31;81.72
51781;BME280;37844;57.126;24.288;2023-10-13T11:29:19;101084.09;;;15.16;78.52
51781;BME280;37844;57.126;24.288;2023-10-13T11:32:14;101072.84;;;15.13;78.98
51781;BME280;37844;57.126;24.288;2023-10-13T11:35:04;101071.13;;;14.90;77.96
51781;BME280;37844;57.126;24.288;2023-10-13T11:37:53;101074.56;;;14.84;79.14
51781;BME280;37844;57.126;24.288;2023-10-13T11:40:46;101076.28;;;14.78;80.96
51781;BME280;37844;57.126;24.288;2023-10-13T11:43:51;101070.22;;;14.73;80.31
51781;BME280;37844;57.126;24.288;2023-10-13T11:46:36;101074.56;;;14.72;79.15
51781;BME280;37844;57.126;24.288;2023-10-13T11:49:20;101071.06;;;14.58;79.56
51781;BME280;37844;57.126;24.288;2023-10-13T11:52:15;101080.59;;;14.62;82.22
51781;BME280;37844;57.126;24.288;2023-10-13T11:55:02;101071.06;;;14.66;82.26
51781;BME280;37844;57.126;24.288;2023-10-13T11:57:47;101069.28;;;14.45;82.69
51781;BME280;37844;57.126;24.288;2023-10-13T12:00:31;101062.31;;;14.25;85.92
51781;BME280;37844;57.126;24.288;2023-10-13T12:03:34;101053.59;;;14.05;87.38
51781;BME280;37844;57.126;24.288;2023-10-13T12:06:37;101054.44;;;13.96;87.80
51781;BME280;37844;57.126;24.288;2023-10-13T12:09:21;101053.59;;;14.00;87.02
51781;BME280;37844;57.126;24.288;2023-10-13T12:12:05;101045.78;;;13.89;87.37
51781;BME280;37844;57.126;24.288;2023-10-13T12:14:49;101038.03;;;13.95;87.89
51781;BME280;37844;57.126;24.288;2023-10-13T12:17:36;101033.75;;;14.10;88.82
51781;BME280;37844;57.126;24.288;2023-10-13T12:20:23;101026.00;;;14.17;89.55
51781;BME280;37844;57.126;24.288;2023-10-13T12:23:16;101024.22;;;14.09;89.40
51781;BME280;37844;57.126;24.288;2023-10-13T12:26:03;101023.41;;;14.14;91.23
51781;BME280;37844;57.126;24.288;2023-10-13T12:29:02;100994.03;;;14.17;92.62
51781;BME280;37844;57.126;24.288;2023-10-13T12:31:50;101019.09;;;14.27;91.22
51781;BME280;37844;57.126;24.288;2023-10-13T12:34:52;101025.09;;;14.08;91.53
51781;BME280;37844;57.126;24.288;2023-10-13T12:37:48;101025.94;;;14.02;89.43
51781;BME280;37844;57.126;24.288;2023-10-13T12:40:33;101012.97;;;13.91;89.78
51781;BME280;37844;57.126;24.288;2023-10-13T12:43:36;101012.09;;;13.97;88.93
51781;BME280;37844;57.126;24.288;2023-10-13T12:46:41;101010.41;;;14.00;89.18
51781;BME280;37844;57.126;24.288;2023-10-13T12:49:44;101012.13;;;14.03;89.58
51781;BME280;37844;57.126;24.288;2023-10-13T12:52:31;101015.56;;;13.94;87.10
51781;BME280;37844;57.126;24.288;2023-10-13T12:55:18;101008.56;;;13.78;87.06
51781;BME280;37844;57.126;24.288;2023-10-13T12:58:08;101015.50;;;13.74;86.96
51781;BME280;37844;57.126;24.288;2023-10-13T13:00:53;101006.75;;;13.57;87.23
51781;BME280;37844;57.126;24.288;2023-10-13T13:03:51;100998.94;;;13.49;87.58
51781;BME280;37844;57.126;24.288;2023-10-13T13:06:39;100992.94;;;13.50;89.51
51781;BME280;37844;57.126;24.288;2023-10-13T13:09:24;100984.31;;;13.53;88.47
51781;BME280;37844;57.126;24.288;2023-10-13T13:12:09;100996.41;;;13.58;89.31
51781;BME280;37844;57.126;24.288;2023-10-13T13:14:56;100990.38;;;13.55;90.14
51781;BME280;37844;57.126;24.288;2023-10-13T13:17:41;100990.31;;;13.47;92.05
51781;BME280;37844;57.126;24.288;2023-10-13T13:20:25;100990.28;;;13.41;91.27
51781;BME280;37844;57.126;24.288;2023-10-13T13:23:13;100985.97;;;13.39;92.29
51781;BME280;37844;57.126;24.288;2023-10-13T13:25:58;100996.31;;;13.39;93.90
51781;BME280;37844;57.126;24.288;2023-10-13T13:28:45;100989.31;;;13.27;94.14
51781;BME280;37844;57.126;24.288;2023-10-13T13:31:30;100983.25;;;13.22;94.75
51781;BME280;37844;57.126;24.288;2023-10-13T13:34:14;100969.38;;;13.10;95.06
51781;BME280;37844;57.126;24.288;2023-10-13T13:36:58;100957.25;;;13.06;95.34
51781;BME280;37844;57.126;24.288;2023-10-13T13:39:44;100967.69;;;13.15;96.07
51781;BME280;37844;57.126;24.288;2023-10-13T13:42:29;100950.34;;;13.01;96.66
51781;BME280;37844;57.126;24.288;2023-10-13T13:45:20;100944.34;;;13.11;98.99
51781;BME280;37844;57.126;24.288;2023-10-13T13:48:15;100935.69;;;13.06;98.13
51781;BME280;37844;57.126;24.288;2023-10-13T13:51:04;100936.56;;;13.09;98.28
51781;BME280;37844;57.126;24.288;2023-10-13T13:53:49;100926.19;;;13.05;99.79
51781;BME280;37844;57.126;24.288;2023-10-13T13:56:33;100932.19;;;12.96;100.00
51781;BME280;37844;57.126;24.288;2023-10-13T13:59:21;100918.41;;;12.99;100.00
51781;BME280;37844;57.126;24.288;2023-10-13T14:02:06;100918.41;;;13.00;100.00
51781;BME280;37844;57.126;24.288;2023-10-13T14:05:03;100917.59;;;13.09;100.00
51781;BME280;37844;57.126;24.288;2023-10-13T14:07:47;100901.16;;;12.96;100.00
51781;BME280;37844;57.126;24.288;2023-10-13T14:10:34;100912.34;;;12.93;100.00
51781;BME280;37844;57.126;24.288;2023-10-13T14:13:39;100911.47;;;12.93;100.00
51781;BME280;37844;57.126;24.288;2023-10-13T14:16:33;100902.84;;;12.89;100.00
51781;BME280;37844;57.126;24.288;2023-10-13T14:19:21;100896.69;;;12.73;100.00
51781;BME280;37844;57.126;24.288;2023-10-13T14:22:11;100890.69;;;12.75;100.00
51781;BME280;37844;57.126;24.288;2023-10-13T14:24:56;100883.72;;;12.69;100.00
51781;BME280;37844;57.126;24.288;2023-10-13T14:27:42;100876.00;;;12.72;100.00
51781;BME280;37844;57.126;24.288;2023-10-13T14:30:26;100875.97;;;12.70;100.00
51781;BME280;37844;57.126;24.288;2023-10-13T14:33:15;100868.13;;;12.57;100.00
51781;BME280;37844;57.126;24.288;2023-10-13T14:35:58;100860.31;;;12.47;100.00
51781;BME280;37844;57.126;24.288;2023-10-13T14:38:42;100860.31;;;12.47;100.00
51781;BME280;37844;57.126;24.288;2023-10-13T14:41:28;100844.75;;;12.43;100.00
51781;BME280;37844;57.126;24.288;2023-10-13T14:44:14;100847.38;;;12.46;100.00